Time;durP1;ratioP1;P1;durP2;ratioP2;P2;SDS_P1;SDS_P2;PMS_P1;PMS_P2;Temp;Humidity;BMP_temperature;BMP_pressure;BME280_temperature;BME280_humidity;BME280_pressure;Samples;Min_cycle;Max_cycle;Signal;HPM_P1;HPM_P2
2021/01/26 00:01:09;;;;;;;;;;;;;;;1.13;100.00;97106.20;1669121;85;21403;-65
2021/01/26 00:03:39;;;;;;;;;;;;;;;1.12;100.00;97120.05;1677013;85;20515;-65
2021/01/26 00:06:10;;;;;;;;;;;;;;;1.13;100.00;97137.36;1677581;85;20278;-66
2021/01/26 00:08:39;;;;;;;;;;;;;;;1.13;100.00;97136.92;1679406;85;20593;-66
2021/01/26 00:11:09;;;;;;;;;;;;;;;1.13;100.00;97160.73;1679616;85;20548;-65
2021/01/26 00:13:40;;;;;;;;;;;;;;;1.11;100.00;97167.66;1669689;85;22300;-65
2021/01/26 00:16:10;;;;;;;;;;;;;;;1.11;100.00;97178.04;1664109;85;20245;-65
2021/01/26 00:18:40;;;;;;;;;;;;;;;1.09;100.00;97184.53;1662823;85;20523;-65
2021/01/26 00:21:10;;;;;;;;;;;;;;;1.06;100.00;97194.05;1662884;85;20192;-65
2021/01/26 00:23:39;;;;;;;;;;;;;;;1.03;100.00;97209.20;1665431;85;20544;-66
2021/01/26 00:26:09;;;;;;;;;;;;;;;1.02;100.00;97216.55;1673656;85;22138;-66
2021/01/26 00:28:39;;;;;;;;;;;;;;;1.02;100.00;97213.09;1662362;86;20550;-66
2021/01/26 00:31:10;;;;;;;;;;;;;;;1.01;100.00;97234.30;1662509;86;20287;-66
2021/01/26 00:33:39;;;;;;;;;;;;;;;1.01;100.00;97243.38;1671803;85;20227;-65
2021/01/26 00:36:10;;;;;;;;;;;;;;;0.99;100.00;97247.70;1662322;86;20510;-65
2021/01/26 00:38:41;;;;;;;;;;;;;;;0.99;100.00;97258.52;1662918;85;22303;-66
2021/01/26 00:41:11;;;;;;;;;;;;;;;0.96;100.00;97265.88;1662691;86;20235;-65
2021/01/26 00:43:44;;;;;;;;;;;;;;;0.96;100.00;97278.85;1662689;86;20249;-66
2021/01/26 00:46:12;;;;;;;;;;;;;;;0.97;100.00;97284.48;1662686;86;20184;-66
2021/01/26 00:48:41;;;;;;;;;;;;;;;0.96;100.00;97281.45;1662753;86;20224;-65
2021/01/26 00:51:11;;;;;;;;;;;;;;;0.94;100.00;97280.12;1662642;85;20506;-65
2021/01/26 00:53:43;;;;;;;;;;;;;;;0.94;100.00;97296.99;1672112;85;20219;-66
2021/01/26 00:56:13;;;;;;;;;;;;;;;0.96;100.00;97291.84;1668934;85;20257;-66
2021/01/26 00:58:43;;;;;;;;;;;;;;;0.96;100.00;97300.92;1639992;86;20638;-66
2021/01/26 01:01:15;;;;;;;;;;;;;;;0.94;100.00;97294.83;1669355;85;20127;-66
2021/01/26 01:03:48;;;;;;;;;;;;;;;0.93;100.00;97299.58;1680629;85;20763;-65
2021/01/26 01:06:17;;;;;;;;;;;;;;;0.93;100.00;97303.05;1670238;85;20583;-66
2021/01/26 01:08:51;;;;;;;;;;;;;;;0.93;100.00;97291.80;1668201;85;20525;-64
2021/01/26 01:11:21;;;;;;;;;;;;;;;0.96;100.00;97289.23;1668287;85;20793;-65
2021/01/26 01:13:53;;;;;;;;;;;;;;;0.99;100.00;97293.57;1681047;85;20552;-65
2021/01/26 01:16:25;;;;;;;;;;;;;;;0.99;100.00;97285.34;1684759;85;22286;-65
2021/01/26 01:18:56;;;;;;;;;;;;;;;0.99;100.00;97291.84;1684581;85;20907;-65
2021/01/26 01:21:28;;;;;;;;;;;;;;;0.99;100.00;97284.05;1664574;85;20224;-65
2021/01/26 01:23:58;;;;;;;;;;;;;;;1.00;100.00;97288.37;1675282;85;20225;-65
2021/01/26 01:26:29;;;;;;;;;;;;;;;1.01;100.00;97286.65;1683931;85;20480;-66
2021/01/26 01:29:01;;;;;;;;;;;;;;;1.00;100.00;97279.30;1677185;85;21362;-65
2021/01/26 01:31:32;;;;;;;;;;;;;;;1.01;100.00;97285.35;1670131;85;20612;-66
2021/01/26 01:34:02;;;;;;;;;;;;;;;1.00;100.00;97281.89;1672158;85;20502;-66
2021/01/26 01:36:36;;;;;;;;;;;;;;;0.98;100.00;97284.91;1658055;86;21065;-66
2021/01/26 01:39:06;;;;;;;;;;;;;;;0.96;100.00;97283.18;1658002;86;20144;-66
2021/01/26 01:41:37;;;;;;;;;;;;;;;0.97;100.00;97277.12;1657845;86;21283;-66
2021/01/26 01:44:06;;;;;;;;;;;;;;;0.97;100.00;97287.51;1658876;85;20514;-65
2021/01/26 01:46:41;;;;;;;;;;;;;;;0.94;100.00;97286.61;1658045;86;20244;-67
2021/01/26 01:49:11;;;;;;;;;;;;;;;0.94;100.00;97294.39;1657638;86;20157;-66
2021/01/26 01:51:40;;;;;;;;;;;;;;;0.97;100.00;97291.41;1657552;86;20515;-67
2021/01/26 01:54:13;;;;;;;;;;;;;;;0.96;100.00;97292.27;1641501;85;21385;-67
2021/01/26 01:57:00;;;;;;;;;;;;;;;0.96;100.00;97300.05;1638271;86;20153;-66
2021/01/26 01:59:41;;;;;;;;;;;;;;;0.96;100.00;97300.05;1645668;85;20633;-67
2021/01/26 02:02:11;;;;;;;;;;;;;;;0.94;100.00;97296.99;1645714;85;20750;-66
2021/01/26 02:04:42;;;;;;;;;;;;;;;0.92;100.00;97294.83;1656930;84;20248;-67
2021/01/26 02:07:12;;;;;;;;;;;;;;;0.91;100.00;97304.77;1688863;85;22115;-66
2021/01/26 02:09:43;;;;;;;;;;;;;;;0.93;100.00;97310.83;1686124;85;20159;-66
2021/01/26 02:12:14;;;;;;;;;;;;;;;0.93;100.00;97313.86;1683775;84;20224;-66
2021/01/26 02:14:51;;;;;;;;;;;;;;;0.93;100.00;97316.45;1680980;85;20222;-66
2021/01/26 02:17:26;;;;;;;;;;;;;;;0.92;100.00;97331.17;1665404;86;20499;-65
2021/01/26 02:20:26;;;;;;;;;;;;;;;0.93;100.00;97324.25;1665372;84;22177;-65
2021/01/26 02:23:15;;;;;;;;;;;;;;;0.95;100.00;97334.23;1673592;85;20559;-65
2021/01/26 02:26:12;;;;;;;;;;;;;;;0.93;100.00;97335.49;1658059;85;20249;-65
2021/01/26 02:28:55;;;;;;;;;;;;;;;0.91;100.00;97332.03;1604094;86;20250;-64
2021/01/26 02:32:02;;;;;;;;;;;;;;;0.91;100.00;97337.66;1655441;86;20243;-65
2021/01/26 02:34:45;;;;;;;;;;;;;;;0.90;100.00;97344.58;1666836;84;21218;-64
2021/01/26 02:37:51;;;;;;;;;;;;;;;0.94;100.00;97345.45;1683522;84;20609;-65
2021/01/26 02:40:29;;;;;;;;;;;;;;;0.93;100.00;97371.84;1688207;85;20499;-65
2021/01/26 02:43:15;;;;;;;;;;;;;;;0.91;100.00;97373.56;1664332;86;20732;-64
2021/01/26 02:45:57;;;;;;;;;;;;;;;0.89;100.00;97379.61;1664205;85;20224;-66
2021/01/26 02:48:33;;;;;;;;;;;;;;;0.89;100.00;97387.40;1692253;85;22144;-65
2021/01/26 02:51:14;;;;;;;;;;;;;;;0.90;100.00;97391.30;1687327;84;20906;-66
2021/01/26 02:54:07;;;;;;;;;;;;;;;0.87;100.00;97397.78;1630014;87;20158;-65
2021/01/26 02:56:42;;;;;;;;;;;;;;;0.88;100.00;97410.33;1687750;84;20488;-65
2021/01/26 02:59:15;;;;;;;;;;;;;;;0.84;100.00;97406.84;1694353;84;20500;-65
2021/01/26 03:01:49;;;;;;;;;;;;;;;0.84;100.00;97421.56;1683445;84;21381;-65
2021/01/26 03:04:31;;;;;;;;;;;;;;;0.81;100.00;97417.65;1691454;83;20279;-65
2021/01/26 03:07:04;;;;;;;;;;;;;;;0.79;100.00;97425.86;1704265;83;20245;-64
2021/01/26 03:09:37;;;;;;;;;;;;;;;0.77;100.00;97442.72;1704505;84;20234;-64
2021/01/26 03:12:23;;;;;;;;;;;;;;;0.77;100.00;97452.23;1693276;84;20503;-64
2021/01/26 03:15:05;;;;;;;;;;;;;;;0.80;100.00;97456.14;1684189;84;21384;-65
2021/01/26 03:17:41;;;;;;;;;;;;;;;0.78;100.00;97463.05;1694527;84;20218;-64
2021/01/26 03:20:18;;;;;;;;;;;;;;;0.78;100.00;97469.55;1695556;84;20220;-66
2021/01/26 03:22:49;;;;;;;;;;;;;;;0.76;100.00;97488.13;1662227;85;20790;-65
2021/01/26 03:25:18;;;;;;;;;;;;;;;0.75;100.00;97476.88;1680193;83;20220;-65
2021/01/26 03:27:48;;;;;;;;;;;;;;;0.74;100.00;97478.17;1698850;84;21226;-65
2021/01/26 03:30:22;;;;;;;;;;;;;;;0.72;100.00;97477.30;1702697;83;20516;-65
2021/01/26 03:32:55;;;;;;;;;;;;;;;0.73;100.00;97476.44;1704364;83;20164;-66
2021/01/26 03:35:27;;;;;;;;;;;;;;;0.74;100.00;97475.15;1704586;83;20144;-62
2021/01/26 03:38:01;;;;;;;;;;;;;;;0.73;100.00;97482.92;1688302;83;20496;-65
2021/01/26 03:40:31;;;;;;;;;;;;;;;0.74;100.00;97494.61;1683068;83;22201;-66
2021/01/26 03:43:04;;;;;;;;;;;;;;;0.75;100.00;97495.48;1688987;83;20486;-69
2021/01/26 03:45:34;;;;;;;;;;;;;;;0.74;100.00;97502.83;1684321;84;20242;-66
2021/01/26 03:48:37;;;;;;;;;;;;;;;0.73;100.00;97503.26;1684401;84;20297;-67
2021/01/26 03:51:20;;;;;;;;;;;;;;;0.70;100.00;97503.23;1696567;83;20511;-65
2021/01/26 03:54:13;;;;;;;;;;;;;;;0.70;100.00;97509.73;1691911;84;22186;-66
2021/01/26 03:57:03;;;;;;;;;;;;;;;0.65;100.00;97517.91;1687041;84;20241;-66
2021/01/26 03:59:48;;;;;;;;;;;;;;;0.62;100.00;97516.16;1679863;85;20225;-66
2021/01/26 04:02:23;;;;;;;;;;;;;;;0.61;100.00;97514.43;1688746;84;20676;-66
2021/01/26 04:05:06;;;;;;;;;;;;;;;0.61;100.00;97513.56;1706332;84;20502;-66
2021/01/26 04:07:45;;;;;;;;;;;;;;;0.54;100.00;97515.24;1694377;83;21214;-67
2021/01/26 04:10:20;;;;;;;;;;;;;;;0.51;100.00;97520.84;1693383;84;20215;-66
2021/01/26 04:12:49;;;;;;;;;;;;;;;0.48;100.00;97515.20;1691914;84;20501;-68
2021/01/26 04:15:24;;;;;;;;;;;;;;;0.46;100.00;97519.48;1689834;83;20232;-66
2021/01/26 04:17:53;;;;;;;;;;;;;;;0.43;100.00;97534.16;1694107;83;20509;-63
2021/01/26 04:20:27;;;;;;;;;;;;;;;0.41;100.00;97524.19;1694529;84;22148;-66
2021/01/26 04:22:58;;;;;;;;;;;;;;;0.41;100.00;97518.58;1699606;83;20520;-66
2021/01/26 04:25:33;;;;;;;;;;;;;;;0.42;100.00;97524.20;1701327;84;20151;-66
2021/01/26 04:28:05;;;;;;;;;;;;;;;0.41;100.00;97522.89;1690409;84;20555;-67
2021/01/26 04:30:34;;;;;;;;;;;;;;;0.39;100.00;97521.59;1689041;85;20228;-65
2021/01/26 04:33:07;;;;;;;;;;;;;;;0.37;100.00;97525.02;1691775;84;21146;-66
2021/01/26 04:35:36;;;;;;;;;;;;;;;0.36;100.00;97512.48;1700625;83;20138;-65
2021/01/26 04:38:05;;;;;;;;;;;;;;;0.34;100.00;97532.36;1686337;84;20258;-66
2021/01/26 04:40:34;;;;;;;;;;;;;;;0.30;100.00;97532.76;1697566;83;20246;-65
2021/01/26 04:43:10;;;;;;;;;;;;;;;0.30;100.00;97536.65;1697554;83;20252;-63
2021/01/26 04:45:43;;;;;;;;;;;;;;;0.28;100.00;97546.57;1678930;85;21371;-62
2021/01/26 04:48:18;;;;;;;;;;;;;;;0.26;100.00;97555.63;1689221;84;20222;-69
2021/01/26 04:50:56;;;;;;;;;;;;;;;0.22;100.00;97563.38;1703407;84;20263;-63
2021/01/26 04:53:38;;;;;;;;;;;;;;;0.20;100.00;97562.06;1708823;84;20708;-60
2021/01/26 04:56:36;;;;;;;;;;;;;;;0.18;100.00;97557.72;1709083;83;20803;-63
2021/01/26 04:59:11;;;;;;;;;;;;;;;0.19;100.00;97565.94;1632591;84;22230;-63
2021/01/26 05:02:01;;;;;;;;;;;;;;;0.19;100.00;97573.29;1707630;84;21055;-63
2021/01/26 05:04:46;;;;;;;;;;;;;;;0.21;100.00;97578.06;1706806;84;20259;-63
2021/01/26 05:07:22;;;;;;;;;;;;;;;0.22;100.00;97578.93;1703633;84;20255;-62
2021/01/26 05:10:09;;;;;;;;;;;;;;;0.23;100.00;97600.12;1703850;83;20268;-63
2021/01/26 05:12:43;;;;;;;;;;;;;;;0.22;100.00;97600.97;1704012;83;20673;-62
2021/01/26 05:15:15;;;;;;;;;;;;;;;0.22;100.00;97603.56;1704381;84;20136;-63
2021/01/26 05:17:50;;;;;;;;;;;;;;;0.23;100.00;97618.27;1704476;84;20137;-63
2021/01/26 05:20:25;;;;;;;;;;;;;;;0.22;100.00;97633.39;1703905;84;20342;-63
2021/01/26 05:23:00;;;;;;;;;;;;;;;0.19;100.00;97635.52;1704554;84;20487;-63
2021/01/26 05:25:29;;;;;;;;;;;;;;;0.17;100.00;97632.05;1704455;83;20502;-63
2021/01/26 05:27:57;;;;;;;;;;;;;;;0.17;100.00;97629.45;1704392;83;20246;-62
2021/01/26 05:30:30;;;;;;;;;;;;;;;0.18;100.00;97617.35;1704437;83;20507;-62
2021/01/26 05:32:59;;;;;;;;;;;;;;;0.21;100.00;97622.14;1704417;84;20137;-62
2021/01/26 05:35:28;;;;;;;;;;;;;;;0.22;100.00;97644.63;1704554;83;20491;-62
2021/01/26 05:37:57;;;;;;;;;;;;;;;0.23;100.00;97664.52;1704427;83;22218;-63
2021/01/26 05:40:37;;;;;;;;;;;;;;;0.25;100.00;97674.48;1704360;83;20495;-63
2021/01/26 05:43:08;;;;;;;;;;;;;;;0.25;100.00;97679.67;1704455;83;20145;-63
2021/01/26 05:45:39;;;;;;;;;;;;;;;0.27;100.00;97668.02;1686581;84;20120;-63
2021/01/26 05:48:10;;;;;;;;;;;;;;;0.27;100.00;97668.02;1704461;83;20233;-63
2021/01/26 05:50:40;;;;;;;;;;;;;;;0.26;100.00;97671.03;1704352;84;21200;-63
2021/01/26 05:53:32;;;;;;;;;;;;;;;0.26;100.00;97664.55;1704290;83;20157;-63
2021/01/26 05:56:12;;;;;;;;;;;;;;;0.29;100.00;97670.20;1704370;84;20491;-62
2021/01/26 05:58:40;;;;;;;;;;;;;;;0.31;100.00;97678.86;1704445;83;20616;-63
2021/01/26 06:01:10;;;;;;;;;;;;;;;0.32;100.00;97681.90;1704334;83;20161;-63
2021/01/26 06:03:40;;;;;;;;;;;;;;;0.31;100.00;97682.75;1704432;83;22300;-63
2021/01/26 06:06:15;;;;;;;;;;;;;;;0.32;100.00;97697.46;1704212;83;20214;-63
2021/01/26 06:08:51;;;;;;;;;;;;;;;0.35;100.00;97704.41;1704429;83;20515;-63
2021/01/26 06:11:23;;;;;;;;;;;;;;;0.35;100.00;97700.09;1704315;83;20224;-63
2021/01/26 06:13:51;;;;;;;;;;;;;;;0.36;100.00;97687.98;1704449;83;20140;-63
2021/01/26 06:16:21;;;;;;;;;;;;;;;0.35;100.00;97692.30;1704328;83;22634;-63
2021/01/26 06:19:01;;;;;;;;;;;;;;;0.38;100.00;97707.90;1704373;83;20220;-63
2021/01/26 06:21:31;;;;;;;;;;;;;;;0.38;100.00;97706.61;1704380;83;20248;-63
2021/01/26 06:24:00;;;;;;;;;;;;;;;0.38;100.00;97702.71;1704389;83;20611;-63
2021/01/26 06:26:32;;;;;;;;;;;;;;;0.40;100.00;97713.11;1697017;84;20253;-63
2021/01/26 06:29:22;;;;;;;;;;;;;;;0.42;100.00;97723.94;1704496;83;21946;-63
2021/01/26 06:32:12;;;;;;;;;;;;;;;0.42;100.00;97722.64;1704378;83;20629;-63
2021/01/26 06:35:05;;;;;;;;;;;;;;;0.43;100.00;97726.98;1656978;84;20483;-63
2021/01/26 06:37:50;;;;;;;;;;;;;;;0.42;100.00;97745.13;1704423;83;20721;-63
2021/01/26 06:40:37;;;;;;;;;;;;;;;0.42;100.00;97733.45;1704347;84;20236;-64
2021/01/26 06:43:21;;;;;;;;;;;;;;;0.44;100.00;97735.63;1704494;83;22112;-64
2021/01/26 06:46:16;;;;;;;;;;;;;;;0.46;100.00;97743.00;1704267;84;20144;-63
2021/01/26 06:48:48;;;;;;;;;;;;;;;0.48;100.00;97759.06;1704354;84;20235;-64
2021/01/26 06:51:44;;;;;;;;;;;;;;;0.49;100.00;97744.37;1704346;83;20487;-63
2021/01/26 06:54:23;;;;;;;;;;;;;;;0.51;100.00;97762.12;1704387;84;20228;-63
2021/01/26 06:57:19;;;;;;;;;;;;;;;0.52;100.00;97772.52;1704227;84;22025;-63
2021/01/26 06:59:51;;;;;;;;;;;;;;;0.55;100.00;97774.27;1704308;84;20600;-64
2021/01/26 07:02:26;;;;;;;;;;;;;;;0.60;100.00;97776.06;1704356;83;20498;-64
2021/01/26 07:05:24;;;;;;;;;;;;;;;0.61;100.00;97773.91;1704359;83;20160;-64
2021/01/26 07:07:59;;;;;;;;;;;;;;;0.64;100.00;97771.77;1714860;83;20244;-63
2021/01/26 07:10:56;;;;;;;;;;;;;;;0.64;100.00;97782.16;1714812;83;22107;-63
2021/01/26 07:13:53;;;;;;;;;;;;;;;0.63;100.00;97776.52;1714705;83;20594;-64
2021/01/26 07:16:31;;;;;;;;;;;;;;;0.63;100.00;97783.87;1714800;83;20510;-64
2021/01/26 07:19:04;;;;;;;;;;;;;;;0.63;100.00;97781.28;1714767;83;20636;-63
2021/01/26 07:21:50;;;;;;;;;;;;;;;0.63;100.00;97783.87;1714882;83;20486;-63
2021/01/26 07:24:34;;;;;;;;;;;;;;;0.62;100.00;97782.14;1714818;83;22388;-64
2021/01/26 07:27:26;;;;;;;;;;;;;;;0.61;100.00;97786.88;1714876;83;20593;-64
2021/01/26 07:30:03;;;;;;;;;;;;;;;0.62;100.00;97791.64;1714997;83;20482;-64
2021/01/26 07:32:54;;;;;;;;;;;;;;;0.62;100.00;97778.67;1714861;83;20133;-64
2021/01/26 07:35:57;;;;;;;;;;;;;;;0.62;100.00;97776.08;1714928;83;20149;-63
2021/01/26 07:38:39;;;;;;;;;;;;;;;0.62;100.00;97794.24;1714847;83;22246;-63
2021/01/26 07:41:12;;;;;;;;;;;;;;;0.62;100.00;97805.49;1714834;83;20678;-64
2021/01/26 07:43:50;;;;;;;;;;;;;;;0.62;100.00;97822.36;1714431;83;20244;-64
2021/01/26 07:46:36;;;;;;;;;;;;;;;0.62;100.00;97825.38;1714843;83;20482;-64
2021/01/26 07:49:21;;;;;;;;;;;;;;;0.64;100.00;97828.86;1714890;83;20291;-63
2021/01/26 07:51:53;;;;;;;;;;;;;;;0.65;100.00;97827.14;1714858;83;21468;-64
2021/01/26 07:54:37;;;;;;;;;;;;;;;0.69;100.00;97830.22;1714817;83;20215;-66
2021/01/26 07:57:05;;;;;;;;;;;;;;;0.71;100.00;97836.30;1696825;83;20382;-64
2021/01/26 07:59:39;;;;;;;;;;;;;;;0.73;100.00;97828.09;1714819;83;20495;-64
2021/01/26 08:02:20;;;;;;;;;;;;;;;0.75;100.00;97835.47;1714665;83;20231;-65
2021/01/26 08:04:49;;;;;;;;;;;;;;;0.77;100.00;97838.95;1714863;83;21368;-64
2021/01/26 08:07:26;;;;;;;;;;;;;;;0.78;100.00;97845.46;1706304;83;20277;-63
2021/01/26 08:09:58;;;;;;;;;;;;;;;0.79;100.00;97834.23;1704448;83;20219;-64
2021/01/26 08:12:33;;;;;;;;;;;;;;;0.81;100.00;97852.41;1704532;84;20494;-63
2021/01/26 08:15:22;;;;;;;;;;;;;;;0.82;100.00;97843.34;1704449;83;20224;-63
2021/01/26 08:17:51;;;;;;;;;;;;;;;0.84;100.00;97853.32;1704288;84;21264;-66
2021/01/26 08:20:32;;;;;;;;;;;;;;;0.85;100.00;97856.79;1704357;84;20220;-67
2021/01/26 08:23:04;;;;;;;;;;;;;;;0.85;100.00;97856.79;1704456;83;20232;-65
2021/01/26 08:25:40;;;;;;;;;;;;;;;0.87;100.00;97871.95;1704390;84;20227;-65
2021/01/26 08:28:30;;;;;;;;;;;;;;;0.87;100.00;97872.83;1704453;83;20382;-65
2021/01/26 08:31:00;;;;;;;;;;;;;;;0.88;100.00;97872.40;1689507;84;20554;-65
2021/01/26 08:33:33;;;;;;;;;;;;;;;0.86;100.00;97887.95;1704363;83;20588;-64
2021/01/26 08:36:11;;;;;;;;;;;;;;;0.87;100.00;97892.72;1704191;84;20220;-64
2021/01/26 08:38:46;;;;;;;;;;;;;;;0.86;100.00;97897.04;1696253;84;20556;-64
2021/01/26 08:41:36;;;;;;;;;;;;;;;0.88;100.00;97893.16;1704567;83;20236;-65
2021/01/26 08:44:22;;;;;;;;;;;;;;;0.92;100.00;97890.63;1844830;77;20165;-63
2021/01/26 08:46:52;;;;;;;;;;;;;;;0.88;100.00;97904.42;1820193;78;20113;-64
2021/01/26 08:49:27;;;;;;;;;;;;;;;0.89;100.00;97903.56;1820219;79;21379;-64
2021/01/26 08:52:00;;;;;;;;;;;;;;;0.93;100.00;97916.16;1820085;79;20109;-65
2021/01/26 08:54:44;;;;;;;;;;;;;;;0.93;100.00;97917.03;1796852;78;20491;-65
2021/01/26 08:57:31;;;;;;;;;;;;;;;0.96;100.00;97917.95;1820135;78;20511;-64
2021/01/26 09:00:16;;;;;;;;;;;;;;;0.95;100.00;97918.38;1820156;79;20153;-64
2021/01/26 09:02:47;;;;;;;;;;;;;;;0.97;100.00;97920.99;1820109;78;21186;-63
2021/01/26 09:05:37;;;;;;;;;;;;;;;0.98;100.00;97923.61;1820107;79;20128;-63
2021/01/26 09:08:06;;;;;;;;;;;;;;;0.99;100.00;97920.58;1809713;78;20133;-63
2021/01/26 09:10:38;;;;;;;;;;;;;;;1.03;100.00;97919.77;1820077;78;20199;-64
2021/01/26 09:13:24;;;;;;;;;;;;;;;1.02;100.00;97920.19;1820154;78;20486;-64
2021/01/26 09:16:17;;;;;;;;;;;;;;;1.02;100.00;97929.28;1820168;78;21373;-65
2021/01/26 09:19:19;;;;;;;;;;;;;;;1.04;100.00;97927.58;1820069;79;20129;-64
2021/01/26 09:21:48;;;;;;;;;;;;;;;1.04;100.00;97930.17;1790023;79;20476;-65
2021/01/26 09:24:23;;;;;;;;;;;;;;;1.07;100.00;97930.20;1820174;79;20490;-65
2021/01/26 09:26:51;;;;;;;;;;;;;;;1.08;100.00;97944.94;1820172;79;20133;-65
2021/01/26 09:29:29;;;;;;;;;;;;;;;1.08;100.00;97945.36;1820175;79;21191;-65
2021/01/26 09:31:58;;;;;;;;;;;;;;;1.11;100.00;97944.09;1820067;79;20132;-66
2021/01/26 09:34:28;;;;;;;;;;;;;;;1.11;100.00;97938.48;1820213;79;20129;-66
2021/01/26 09:37:09;;;;;;;;;;;;;;;1.14;100.00;97945.00;1820193;79;20479;-66
2021/01/26 09:39:38;;;;;;;;;;;;;;;1.18;100.00;97942.02;1820223;79;20487;-64
2021/01/26 09:42:10;;;;;;;;;;;;;;;1.18;100.00;97947.20;1819730;79;20518;-64
2021/01/26 09:44:39;;;;;;;;;;;;;;;1.19;100.00;97941.16;1801772;79;20582;-65
2021/01/26 09:47:09;;;;;;;;;;;;;;;1.21;100.00;97945.52;1808975;79;20483;-64
2021/01/26 09:49:38;;;;;;;;;;;;;;;1.22;100.00;97939.89;1809002;79;20520;-62
2021/01/26 09:52:10;;;;;;;;;;;;;;;1.24;100.00;97945.55;1808957;79;20169;-63
2021/01/26 09:54:41;;;;;;;;;;;;;;;1.26;100.00;97937.78;1808715;79;21194;-64
2021/01/26 09:57:13;;;;;;;;;;;;;;;1.29;100.00;97944.30;1808273;79;20480;-64
2021/01/26 09:59:44;;;;;;;;;;;;;;;1.29;100.00;97943.00;1808393;79;20472;-64
2021/01/26 10:02:14;;;;;;;;;;;;;;;1.31;100.00;97943.89;1808349;79;20153;-64
2021/01/26 10:04:44;;;;;;;;;;;;;;;1.34;100.00;97945.23;1808402;79;20134;-65
2021/01/26 10:07:15;;;;;;;;;;;;;;;1.35;100.00;97946.09;1806996;79;21280;-66
2021/01/26 10:09:43;;;;;;;;;;;;;;;1.33;100.00;97956.90;1784102;79;20149;-66
2021/01/26 10:12:41;;;;;;;;;;;;;;;1.32;100.00;97954.73;1808357;79;20129;-66
2021/01/26 10:15:34;;;;;;;;;;;;;;;1.34;100.00;97958.22;1808246;79;20153;-66
2021/01/26 10:18:17;;;;;;;;;;;;;;;1.39;100.00;97959.14;1808345;79;20157;-65
2021/01/26 10:20:50;;;;;;;;;;;;;;;1.40;100.00;97954.81;1808292;79;22388;-65
2021/01/26 10:23:25;;;;;;;;;;;;;;;1.43;100.00;97960.95;1808374;79;20485;-65
2021/01/26 10:25:55;;;;;;;;;;;;;;;1.46;100.00;97957.08;1808387;79;20479;-65
2021/01/26 10:28:26;;;;;;;;;;;;;;;1.51;100.00;97977.92;1807014;79;20134;-66
2021/01/26 10:30:56;;;;;;;;;;;;;;;1.53;100.00;97981.41;1808498;79;20140;-66
2021/01/26 10:33:33;;;;;;;;;;;;;;;1.55;100.00;97982.30;1808359;79;22271;-63
2021/01/26 10:36:22;;;;;;;;;;;;;;;1.56;100.00;97985.34;1808268;79;20133;-66
2021/01/26 10:38:51;;;;;;;;;;;;;;;1.56;100.00;97991.41;1808463;79;20237;-65
2021/01/26 10:41:22;;;;;;;;;;;;;;;1.58;100.00;97995.31;1808356;79;20375;-66
2021/01/26 10:44:08;;;;;;;;;;;;;;;1.57;100.00;97998.34;1804019;79;20150;-66
2021/01/26 10:46:43;;;;;;;;;;;;;;;1.58;100.00;97997.92;1801021;79;21373;-65
2021/01/26 10:49:17;;;;;;;;;;;;;;;1.62;100.00;97997.09;1800792;79;20114;-65
2021/01/26 10:51:46;;;;;;;;;;;;;;;1.64;100.00;97997.11;1801078;79;20145;-64
2021/01/26 10:54:14;;;;;;;;;;;;;;;1.64;100.00;98001.88;1800958;79;20637;-64
2021/01/26 10:56:43;;;;;;;;;;;;;;;1.64;100.00;98003.61;1801080;79;20495;-64
2021/01/26 10:59:12;;;;;;;;;;;;;;;1.63;100.00;98013.13;1801049;79;21135;-65
2021/01/26 11:01:43;;;;;;;;;;;;;;;1.65;100.00;98014.02;1800949;79;20110;-65
2021/01/26 11:04:11;;;;;;;;;;;;;;;1.66;100.00;98001.47;1800990;79;20145;-65
2021/01/26 11:06:40;;;;;;;;;;;;;;;1.67;100.00;98004.94;1800916;79;20614;-65
2021/01/26 11:09:09;;;;;;;;;;;;;;;1.68;100.00;98006.25;1801048;79;20149;-64
2021/01/26 11:11:39;;;;;;;;;;;;;;;1.70;100.00;98002.38;1801048;79;22165;-65
2021/01/26 11:14:08;;;;;;;;;;;;;;;1.71;100.00;98002.39;1800919;79;20129;-63
2021/01/26 11:16:36;;;;;;;;;;;;;;;1.74;100.00;98001.55;1800963;79;20146;-65
2021/01/26 11:19:08;;;;;;;;;;;;;;;1.76;100.00;98009.81;1800893;79;20503;-65
2021/01/26 11:21:37;;;;;;;;;;;;;;;1.76;100.00;98011.11;1801006;79;20129;-65
2021/01/26 11:24:06;;;;;;;;;;;;;;;1.78;100.00;98009.39;1801011;79;22125;-64
2021/01/26 11:26:34;;;;;;;;;;;;;;;1.80;100.00;98007.68;1800952;79;20153;-65
2021/01/26 11:29:03;;;;;;;;;;;;;;;1.80;100.00;98006.38;1800996;79;20114;-65
2021/01/26 11:31:31;;;;;;;;;;;;;;;1.81;100.00;98001.63;1800968;79;20153;-63
2021/01/26 11:34:00;;;;;;;;;;;;;;;1.82;100.00;98005.09;1800980;79;20130;-64
2021/01/26 11:36:29;;;;;;;;;;;;;;;1.84;100.00;97996.45;1800964;79;21373;-65
2021/01/26 11:38:58;;;;;;;;;;;;;;;1.85;100.00;97995.59;1800995;79;20134;-65
2021/01/26 11:41:27;;;;;;;;;;;;;;;1.87;100.00;98003.41;1801050;79;20468;-65
2021/01/26 11:43:56;;;;;;;;;;;;;;;1.88;100.00;98008.62;1804237;79;20378;-65
2021/01/26 11:46:25;;;;;;;;;;;;;;;1.85;100.00;97999.50;1808300;79;20175;-64
2021/01/26 11:48:54;;;;;;;;;;;;;;;1.87;100.00;98008.19;1808246;79;21208;-65
2021/01/26 11:51:23;;;;;;;;;;;;;;;1.92;100.00;98008.69;1808235;79;20603;-65
2021/01/26 11:53:51;;;;;;;;;;;;;;;1.94;100.00;98013.05;1808304;79;20130;-65
2021/01/26 11:56:22;;;;;;;;;;;;;;;1.97;100.00;98005.70;1808136;79;20109;-63
2021/01/26 11:58:50;;;;;;;;;;;;;;;2.00;100.00;98009.63;1806151;79;20177;-63
2021/01/26 12:01:18;;;;;;;;;;;;;;;2.03;100.00;98010.53;1814895;79;21195;-63
2021/01/26 12:03:47;;;;;;;;;;;;;;;2.05;100.00;98007.95;1815606;78;20141;-63
2021/01/26 12:06:16;;;;;;;;;;;;;;;2.05;100.00;98008.81;1815843;79;20176;-62
2021/01/26 12:08:47;;;;;;;;;;;;;;;2.06;100.00;98008.39;1816942;78;20215;-62
2021/01/26 12:11:17;;;;;;;;;;;;;;;2.08;100.00;98012.75;1816872;78;20109;-62
2021/01/26 12:13:45;;;;;;;;;;;;;;;2.09;100.00;98009.29;1816803;79;21360;-62
2021/01/26 12:16:14;;;;;;;;;;;;;;;2.09;100.00;98005.81;1816920;78;20471;-62
2021/01/26 12:18:43;;;;;;;;;;;;;;;2.11;100.00;98014.08;1816866;78;20491;-62
2021/01/26 12:21:13;;;;;;;;;;;;;;;2.10;100.00;98014.06;1816855;78;20482;-62
2021/01/26 12:23:47;;;;;;;;;;;;;;;2.09;100.00;98013.62;1816742;79;20133;-63
2021/01/26 12:26:14;;;;;;;;;;;;;;;2.09;100.00;98014.92;1816389;78;22049;-63
2021/01/26 12:28:44;;;;;;;;;;;;;;;2.10;100.00;98009.73;1816780;79;20113;-63
2021/01/26 12:31:12;;;;;;;;;;;;;;;2.11;99.83;98014.08;1816860;78;20133;-63
2021/01/26 12:33:41;;;;;;;;;;;;;;;2.11;99.59;98019.70;1816920;78;20561;-61
2021/01/26 12:36:10;;;;;;;;;;;;;;;2.11;99.49;98020.58;1816845;78;20137;-61
2021/01/26 12:38:39;;;;;;;;;;;;;;;2.12;99.39;98015.82;1786688;80;21363;-62
2021/01/26 12:41:08;;;;;;;;;;;;;;;2.12;99.34;98027.52;1749854;81;20157;-61
2021/01/26 12:43:36;;;;;;;;;;;;;;;2.12;99.23;98021.45;1749850;82;20233;-62
2021/01/26 12:46:05;;;;;;;;;;;;;;;2.12;99.27;98032.73;1750011;81;20653;-62
2021/01/26 12:48:34;;;;;;;;;;;;;;;2.18;99.24;98036.69;1749967;81;20118;-61
2021/01/26 12:51:05;;;;;;;;;;;;;;;2.32;99.49;98043.30;1749951;81;21444;-61
2021/01/26 12:53:34;;;;;;;;;;;;;;;2.53;99.58;98043.52;1749858;81;20268;-62
2021/01/26 12:56:03;;;;;;;;;;;;;;;2.76;99.63;98038.91;1749943;82;20484;-62
2021/01/26 12:58:32;;;;;;;;;;;;;;;2.98;99.03;98038.21;1748953;81;20636;-62
2021/01/26 13:01:00;;;;;;;;;;;;;;;3.25;98.61;98043.13;1737524;82;20217;-62
2021/01/26 13:03:29;;;;;;;;;;;;;;;3.56;98.18;98026.78;1737573;82;22357;-62
2021/01/26 13:05:59;;;;;;;;;;;;;;;3.83;97.33;98029.94;1737390;82;20246;-62
2021/01/26 13:08:28;;;;;;;;;;;;;;;4.01;95.73;98031.72;1737585;82;20530;-62
2021/01/26 13:10:58;;;;;;;;;;;;;;;4.17;94.90;98031.30;1740592;81;20785;-62
2021/01/26 13:13:28;;;;;;;;;;;;;;;4.29;93.66;98034.83;1737650;82;20503;-62
2021/01/26 13:15:57;;;;;;;;;;;;;;;4.37;91.84;98036.13;1737567;82;20493;-61
2021/01/26 13:18:26;;;;;;;;;;;;;;;4.38;90.58;98036.14;1737594;82;20482;-61
2021/01/26 13:20:55;;;;;;;;;;;;;;;4.43;89.62;98037.45;1724743;83;20190;-61
2021/01/26 13:23:24;;;;;;;;;;;;;;;4.48;88.64;98042.66;1721464;82;20620;-61
2021/01/26 13:25:53;;;;;;;;;;;;;;;4.58;87.93;98048.32;1754745;82;20320;-62
2021/01/26 13:28:22;;;;;;;;;;;;;;;4.66;87.25;98051.80;1754744;81;21153;-62